createdAt,value
2017-06-30T00:00:13.410Z,18.30
2017-06-30T00:02:41.686Z,18.20
2017-06-30T00:05:10.007Z,18.30
2017-06-30T00:07:39.794Z,18.30
2017-06-30T00:12:38.043Z,18.30
2017-06-30T00:15:06.340Z,18.30
2017-06-30T00:17:35.020Z,18.30
2017-06-30T00:20:03.675Z,18.30
2017-06-30T00:22:32.715Z,18.20
2017-06-30T00:25:00.995Z,18.30
2017-06-30T00:27:29.322Z,18.20
2017-06-30T00:29:57.603Z,18.20
2017-06-30T00:34:55.826Z,18.20
2017-06-30T00:37:24.107Z,18.20
2017-06-30T00:39:53.155Z,18.20
2017-06-30T00:44:53.486Z,18.20
2017-06-30T00:47:21.778Z,18.20
2017-06-30T00:49:50.115Z,18.20
2017-06-30T00:52:19.899Z,18.20
2017-06-30T00:54:48.363Z,18.20
2017-06-30T00:57:17.834Z,18.20
2017-06-30T00:59:46.118Z,18.20
2017-06-30T01:02:14.391Z,18.20
2017-06-30T01:04:42.998Z,18.20
2017-06-30T01:07:11.278Z,18.20
2017-06-30T01:09:40.699Z,18.20
2017-06-30T01:12:09.022Z,18.20
2017-06-30T01:17:07.570Z,18.20
2017-06-30T01:19:35.911Z,18.10
2017-06-30T01:22:04.981Z,18.10
2017-06-30T01:24:33.277Z,18.10
2017-06-30T01:29:31.118Z,18.10
2017-06-30T01:31:59.398Z,18.10
2017-06-30T01:34:28.638Z,18.10
2017-06-30T01:36:57.679Z,18.00
2017-06-30T01:39:26.351Z,18.10
2017-06-30T01:41:56.170Z,18.10
2017-06-30T01:46:54.347Z,18.00
2017-06-30T01:49:22.698Z,18.10
2017-06-30T01:51:50.975Z,18.00
2017-06-30T01:56:49.295Z,18.10
2017-06-30T02:01:47.834Z,18.10
2017-06-30T02:04:17.242Z,18.10
2017-06-30T02:06:46.282Z,18.20
2017-06-30T02:09:15.326Z,18.20
2017-06-30T02:11:43.939Z,18.30
2017-06-30T02:16:41.715Z,18.40
2017-06-30T02:19:11.543Z,18.40
2017-06-30T02:21:39.815Z,18.40
2017-06-30T02:24:08.090Z,18.40
2017-06-30T02:26:36.632Z,18.50
2017-06-30T02:29:04.918Z,18.40
2017-06-30T02:31:33.203Z,18.40
2017-06-30T02:34:03.022Z,18.50
2017-06-30T02:39:01.199Z,18.50
2017-06-30T02:41:30.787Z,18.50
2017-06-30T02:43:59.452Z,18.50
2017-06-30T02:46:28.123Z,18.50
2017-06-30T02:48:57.306Z,18.50
2017-06-30T02:51:27.083Z,18.50
2017-06-30T02:53:55.358Z,18.50
2017-06-30T02:58:53.194Z,18.50
2017-06-30T03:01:21.476Z,18.50
2017-06-30T03:03:50.586Z,18.50
2017-06-30T03:06:18.858Z,18.50
2017-06-30T03:08:47.904Z,18.50
2017-06-30T03:11:17.278Z,18.50
2017-06-30T03:13:47.058Z,18.60
2017-06-30T03:16:16.467Z,18.60
2017-06-30T03:18:45.550Z,18.60
2017-06-30T03:21:14.966Z,18.60
2017-06-30T03:23:43.703Z,18.60
2017-06-30T03:26:13.190Z,18.60
2017-06-30T03:28:41.858Z,18.60
2017-06-30T03:31:10.906Z,18.60
2017-06-30T03:36:09.115Z,18.60
2017-06-30T03:41:07.715Z,18.60
2017-06-30T03:43:36.391Z,18.60
2017-06-30T03:46:05.444Z,18.60
2017-06-30T03:51:34.122Z,18.50
2017-06-30T03:54:02.806Z,18.50
2017-06-30T03:56:31.086Z,18.60
2017-06-30T03:59:00.946Z,18.60
2017-06-30T04:03:59.471Z,18.50
2017-06-30T04:06:28.572Z,18.50
2017-06-30T04:11:26.743Z,18.50
2017-06-30T04:16:24.850Z,18.50
2017-06-30T04:18:53.126Z,18.40
2017-06-30T04:21:21.453Z,18.40
2017-06-30T04:26:19.230Z,18.50
2017-06-30T04:28:47.551Z,18.50
2017-06-30T04:31:15.835Z,18.50
2017-06-30T04:33:44.099Z,18.50
2017-06-30T04:36:12.523Z,18.50
2017-06-30T04:38:42.303Z,18.50
2017-06-30T04:41:10.575Z,18.40
2017-06-30T04:43:39.286Z,18.40
2017-06-30T04:46:08.332Z,18.40
2017-06-30T04:51:06.598Z,18.40
2017-06-30T04:53:35.644Z,18.40
2017-06-30T04:56:04.703Z,18.40
2017-06-30T04:58:33.043Z,18.40
2017-06-30T05:01:01.314Z,18.40
2017-06-30T05:03:29.598Z,18.40
2017-06-30T05:05:57.914Z,18.40
2017-06-30T05:08:27.327Z,18.40
2017-06-30T05:10:55.603Z,18.40
2017-06-30T05:13:24.463Z,18.40
2017-06-30T05:15:52.747Z,18.40
2017-06-30T05:18:22.171Z,18.40
2017-06-30T05:23:20.771Z,18.40
2017-06-30T05:25:49.046Z,18.40
2017-06-30T05:28:18.146Z,18.40
2017-06-30T05:30:46.422Z,18.50
2017-06-30T05:33:15.465Z,18.50
2017-06-30T05:35:44.571Z,18.50
2017-06-30T05:38:12.834Z,18.60
2017-06-30T05:40:42.614Z,18.60
2017-06-30T05:43:10.931Z,18.60
2017-06-30T05:45:40.718Z,18.50
2017-06-30T05:48:09.768Z,18.50
2017-06-30T05:50:38.370Z,18.50
2017-06-30T05:53:07.418Z,18.60
2017-06-30T05:55:35.706Z,18.60
2017-06-30T05:58:04.055Z,18.60
2017-06-30T06:00:32.355Z,18.70
2017-06-30T06:03:00.631Z,18.80
2017-06-30T06:05:30.801Z,18.80
2017-06-30T06:07:59.842Z,18.90
2017-06-30T06:10:28.879Z,18.90
2017-06-30T06:12:58.618Z,19.00
2017-06-30T06:15:27.295Z,19.00
2017-06-30T06:17:55.570Z,18.90
2017-06-30T06:20:24.659Z,18.90
2017-06-30T06:22:52.934Z,18.90
2017-06-30T06:25:21.999Z,19.00
2017-06-30T06:27:50.746Z,19.00
2017-06-30T06:30:19.022Z,18.90
2017-06-30T06:32:47.700Z,18.90
2017-06-30T06:35:17.548Z,18.90
2017-06-30T06:37:45.822Z,18.80
2017-06-30T06:40:14.098Z,18.90
2017-06-30T06:42:42.447Z,19.00
2017-06-30T06:45:12.219Z,19.00
2017-06-30T06:47:40.494Z,19.10
2017-06-30T06:50:08.839Z,19.10
2017-06-30T06:52:37.890Z,19.10
2017-06-30T06:55:06.178Z,19.10
2017-06-30T06:57:34.551Z,19.20
2017-06-30T07:00:03.373Z,19.30
2017-06-30T07:02:32.790Z,19.30
2017-06-30T07:05:02.644Z,19.40
2017-06-30T07:07:30.927Z,19.40
2017-06-30T07:09:59.198Z,19.60
2017-06-30T07:12:28.673Z,19.60
2017-06-30T07:14:56.950Z,19.70
2017-06-30T07:17:25.995Z,19.70
2017-06-30T07:19:54.407Z,19.70
2017-06-30T07:22:23.818Z,19.70
2017-06-30T07:24:52.106Z,19.80
2017-06-30T07:27:20.430Z,19.90
2017-06-30T07:29:48.702Z,19.80
2017-06-30T07:32:17.742Z,19.90
2017-06-30T07:34:46.079Z,19.90
2017-06-30T07:37:15.119Z,19.90
2017-06-30T07:39:44.527Z,20.00
2017-06-30T07:42:14.374Z,20.10
2017-06-30T07:44:44.156Z,20.10
2017-06-30T07:47:12.427Z,20.20
2017-06-30T07:49:42.270Z,20.30
2017-06-30T07:52:10.542Z,20.50
2017-06-30T07:54:38.818Z,20.60
2017-06-30T07:57:07.440Z,20.70
2017-06-30T07:59:35.731Z,20.80
2017-06-30T08:02:04.023Z,20.90
2017-06-30T08:07:01.899Z,21.00
2017-06-30T08:12:00.830Z,21.20
2017-06-30T08:14:29.106Z,21.30
2017-06-30T08:16:57.779Z,21.30
2017-06-30T08:19:26.119Z,21.40
2017-06-30T08:21:55.159Z,21.40
2017-06-30T08:24:23.831Z,21.50
2017-06-30T08:26:52.524Z,21.60
2017-06-30T08:29:20.811Z,21.60
2017-06-30T08:31:50.598Z,21.70
2017-06-30T08:34:18.947Z,21.90
2017-06-30T08:36:47.223Z,22.00
2017-06-30T08:39:15.499Z,22.20
2017-06-30T08:44:13.322Z,22.40
2017-06-30T08:46:41.594Z,22.50
2017-06-30T08:49:09.918Z,22.50
2017-06-30T08:54:08.111Z,22.50
2017-06-30T08:56:36.458Z,22.50
2017-06-30T08:59:04.752Z,22.50
2017-06-30T09:01:33.807Z,22.50
2017-06-30T09:04:02.499Z,22.50
2017-06-30T09:06:31.939Z,22.40
2017-06-30T09:11:30.206Z,22.40
2017-06-30T09:16:28.390Z,22.20
2017-06-30T09:18:56.709Z,22.20
2017-06-30T09:21:24.983Z,22.20
2017-06-30T09:26:23.238Z,22.30
2017-06-30T09:28:51.935Z,22.40
2017-06-30T09:31:20.214Z,22.40
2017-06-30T09:33:49.343Z,22.40
2017-06-30T09:36:18.011Z,22.30
2017-06-30T09:38:46.293Z,22.30
2017-06-30T09:41:14.610Z,22.30
2017-06-30T09:43:43.651Z,22.30
2017-06-30T09:46:11.923Z,22.30
2017-06-30T09:51:09.750Z,22.40
2017-06-30T09:53:38.047Z,22.40
2017-06-30T09:56:06.705Z,22.40
2017-06-30T09:58:35.006Z,22.50
2017-06-30T10:01:03.296Z,22.50
2017-06-30T10:03:32.864Z,22.60
2017-06-30T10:06:01.148Z,22.60
2017-06-30T10:10:59.743Z,22.50
2017-06-30T10:13:29.151Z,22.50
2017-06-30T10:15:57.826Z,22.60
2017-06-30T10:18:26.168Z,22.80
2017-06-30T10:20:54.442Z,23.00
2017-06-30T10:23:23.490Z,23.00
2017-06-30T10:28:27.834Z,23.10
2017-06-30T10:30:56.459Z,23.20
2017-06-30T10:33:25.499Z,23.20
2017-06-30T10:35:53.770Z,23.20
2017-06-30T10:38:22.482Z,23.20
2017-06-30T10:40:50.779Z,23.10
2017-06-30T10:43:19.062Z,23.10
2017-06-30T10:45:47.378Z,23.00
2017-06-30T10:48:16.786Z,22.90
2017-06-30T10:50:45.455Z,22.80
2017-06-30T10:53:14.078Z,22.70
2017-06-30T10:58:12.991Z,22.60
2017-06-30T11:00:43.476Z,22.60
2017-06-30T11:03:13.259Z,22.60
2017-06-30T11:05:41.530Z,22.50
2017-06-30T11:10:43.982Z,22.40
2017-06-30T11:13:12.395Z,22.40
2017-06-30T11:15:41.803Z,22.50
2017-06-30T11:18:10.076Z,22.50
2017-06-30T11:20:38.422Z,22.50
2017-06-30T11:23:06.718Z,22.60
2017-06-30T11:25:35.015Z,22.70
2017-06-30T11:28:04.900Z,22.80
2017-06-30T11:33:03.097Z,22.70
2017-06-30T11:35:31.469Z,22.60
2017-06-30T11:37:59.723Z,22.50
2017-06-30T11:40:27.998Z,22.50
2017-06-30T11:42:57.084Z,22.50
2017-06-30T11:45:26.122Z,22.50
2017-06-30T11:47:55.165Z,22.50
2017-06-30T11:50:23.506Z,22.50
2017-06-30T11:52:51.788Z,22.40
2017-06-30T11:55:20.073Z,22.40
2017-06-30T11:57:49.542Z,22.50
2017-06-30T12:00:18.578Z,22.50
2017-06-30T12:02:46.851Z,22.50
2017-06-30T12:05:16.304Z,22.50
2017-06-30T12:07:44.579Z,22.60
2017-06-30T12:10:12.850Z,22.60
2017-06-30T12:12:41.166Z,22.60
2017-06-30T12:15:10.947Z,22.60
2017-06-30T12:17:39.219Z,22.50
2017-06-30T12:20:08.711Z,22.40
2017-06-30T12:22:37.762Z,22.40
2017-06-30T12:25:06.828Z,22.30
2017-06-30T12:27:36.373Z,22.30
2017-06-30T12:30:05.183Z,22.30
2017-06-30T12:32:33.466Z,22.30
2017-06-30T12:35:01.805Z,22.30
2017-06-30T12:37:31.578Z,22.30
2017-06-30T12:40:01.412Z,22.40
2017-06-30T12:42:29.723Z,22.50
2017-06-30T12:44:58.762Z,22.60
2017-06-30T12:47:27.835Z,22.70
2017-06-30T12:49:56.142Z,22.70
2017-06-30T12:52:24.810Z,22.80
2017-06-30T12:54:54.627Z,22.80
2017-06-30T12:57:22.954Z,22.90
2017-06-30T12:59:51.233Z,23.00
2017-06-30T13:04:49.447Z,23.20
2017-06-30T13:07:17.724Z,23.30
2017-06-30T13:09:46.823Z,23.40
2017-06-30T13:14:45.007Z,23.70
2017-06-30T13:17:13.346Z,23.80
2017-06-30T13:22:11.514Z,23.90
2017-06-30T13:24:40.598Z,23.90
2017-06-30T13:27:09.637Z,23.90
2017-06-30T13:29:37.921Z,23.80
2017-06-30T13:32:06.603Z,23.80
2017-06-30T13:34:36.397Z,23.80
2017-06-30T13:39:35.035Z,23.50
2017-06-30T13:42:03.325Z,23.50
2017-06-30T13:47:01.559Z,23.30
2017-06-30T13:49:30.603Z,23.30
2017-06-30T13:51:58.918Z,23.30
2017-06-30T13:54:27.193Z,23.40
2017-06-30T13:56:56.973Z,23.50
2017-06-30T13:59:25.292Z,23.60
2017-06-30T14:01:53.574Z,23.70
2017-06-30T14:04:21.859Z,23.80
2017-06-30T14:06:50.196Z,23.90
2017-06-30T14:09:18.473Z,23.90
2017-06-30T14:11:46.742Z,24.00
2017-06-30T14:14:16.198Z,24.00
2017-06-30T14:16:44.466Z,24.00
2017-06-30T14:19:12.746Z,24.10
2017-06-30T14:24:10.990Z,24.20
2017-06-30T14:26:39.261Z,24.30
2017-06-30T14:29:07.654Z,24.30
2017-06-30T14:31:36.333Z,24.20
2017-06-30T14:39:04.944Z,24.20
2017-06-30T14:41:33.631Z,24.10
2017-06-30T14:44:01.978Z,24.20
2017-06-30T14:46:30.247Z,24.20
2017-06-30T14:48:59.282Z,24.30
2017-06-30T14:51:28.636Z,24.40
2017-06-30T14:53:57.675Z,24.40
2017-06-30T14:56:26.347Z,24.40
2017-06-30T14:58:54.675Z,24.40
2017-06-30T15:01:22.960Z,24.50
2017-06-30T15:03:52.749Z,24.50
2017-06-30T15:06:21.415Z,24.60
2017-06-30T15:08:50.078Z,24.50
2017-06-30T15:11:18.360Z,24.50
2017-06-30T15:13:46.691Z,24.40
2017-06-30T15:16:16.466Z,24.40
2017-06-30T15:18:44.739Z,24.40
2017-06-30T15:21:13.430Z,24.40
2017-06-30T15:23:42.842Z,24.40
2017-06-30T15:26:11.134Z,24.30
2017-06-30T15:28:39.766Z,24.40
2017-06-30T15:31:08.050Z,24.30
2017-06-30T15:33:36.740Z,24.30
2017-06-30T15:36:05.830Z,24.30
2017-06-30T15:38:34.125Z,24.30
2017-06-30T15:46:02.399Z,24.40
2017-06-30T15:48:31.830Z,24.40
2017-06-30T15:51:00.935Z,24.40
2017-06-30T15:53:29.213Z,24.40
2017-06-30T15:55:58.251Z,24.40
2017-06-30T15:58:26.573Z,24.40
2017-06-30T16:00:54.846Z,24.40
2017-06-30T16:10:56.918Z,24.50
2017-06-30T16:13:25.194Z,24.50
2017-06-30T16:15:53.470Z,24.40
2017-06-30T16:18:21.795Z,24.40
2017-06-30T16:20:50.067Z,24.50
2017-06-30T16:23:18.343Z,24.40
2017-06-30T16:25:46.671Z,24.40
2017-06-30T16:28:16.451Z,24.40
2017-06-30T16:30:44.731Z,24.40
2017-06-30T16:33:13.576Z,24.30
2017-06-30T16:35:42.280Z,24.40
2017-06-30T16:40:40.831Z,24.30
2017-06-30T16:45:38.660Z,24.30
2017-06-30T16:48:07.007Z,24.20
2017-06-30T16:50:35.306Z,24.30
2017-06-30T16:53:03.605Z,24.30
2017-06-30T16:55:33.090Z,24.30
2017-06-30T16:58:01.363Z,24.40
2017-06-30T17:00:29.647Z,24.30
2017-06-30T17:02:58.338Z,24.30
2017-06-30T17:07:56.132Z,24.30
2017-06-30T17:10:24.452Z,24.30
2017-06-30T17:15:23.011Z,24.20
2017-06-30T17:17:52.104Z,24.20
2017-06-30T17:22:50.270Z,24.10
2017-06-30T17:25:18.667Z,24.10
2017-06-30T17:27:48.090Z,24.00
2017-06-30T17:30:17.130Z,24.00
2017-06-30T17:32:45.459Z,24.00
2017-06-30T17:35:14.871Z,23.90
2017-06-30T17:37:43.148Z,23.90
2017-06-30T17:40:11.570Z,23.80
2017-06-30T17:42:39.850Z,23.80
2017-06-30T17:45:08.143Z,23.80
2017-06-30T17:50:05.993Z,23.70
2017-06-30T17:52:34.283Z,23.70
2017-06-30T17:55:02.659Z,23.70
2017-06-30T18:00:02.031Z,23.50
2017-06-30T18:02:32.187Z,23.50
2017-06-30T18:05:00.463Z,23.50
2017-06-30T18:15:02.687Z,23.30
2017-06-30T18:20:00.870Z,23.20
2017-06-30T18:22:30.471Z,23.10
2017-06-30T18:24:59.522Z,23.10
2017-06-30T18:27:27.795Z,23.00
2017-06-30T18:29:56.143Z,23.00
2017-06-30T18:45:24.154Z,22.60
2017-06-30T18:47:52.430Z,22.50
2017-06-30T18:50:20.759Z,22.40
2017-06-30T18:55:18.530Z,22.30
2017-06-30T18:57:47.142Z,22.30
2017-06-30T19:00:16.555Z,22.30
2017-06-30T19:02:44.827Z,22.20
2017-06-30T19:05:13.459Z,22.20
2017-06-30T19:10:11.634Z,22.20
2017-06-30T19:15:09.930Z,22.10
2017-06-30T19:17:38.214Z,22.10
2017-06-30T19:20:06.582Z,22.00
2017-06-30T19:22:35.636Z,22.00
2017-06-30T19:25:03.966Z,22.00
2017-06-30T19:27:33.799Z,21.90
2017-06-30T19:32:31.988Z,21.80
2017-06-30T19:35:00.986Z,21.80
2017-06-30T19:37:29.262Z,21.80
2017-06-30T19:39:57.534Z,21.70
2017-06-30T19:42:26.618Z,21.70
2017-06-30T19:44:54.894Z,21.60
2017-06-30T19:47:23.171Z,21.60
2017-06-30T19:49:51.515Z,21.60
2017-06-30T19:52:19.794Z,21.50
2017-06-30T19:54:48.835Z,21.50
2017-06-30T19:57:17.154Z,21.40
2017-06-30T19:59:46.194Z,21.40
2017-06-30T20:02:14.467Z,21.30
2017-06-30T20:07:13.691Z,21.20
2017-06-30T20:09:41.971Z,21.00
2017-06-30T20:14:40.075Z,20.80
2017-06-30T20:17:08.387Z,20.70
2017-06-30T20:19:38.254Z,20.60
2017-06-30T20:22:06.575Z,20.50
2017-06-30T20:24:34.871Z,20.40
2017-06-30T20:27:03.221Z,20.30
2017-06-30T20:29:31.499Z,20.30
2017-06-30T20:32:01.296Z,20.20
2017-06-30T20:34:29.899Z,20.10
2017-06-30T20:36:59.691Z,20.00
2017-06-30T20:39:29.121Z,20.00
2017-06-30T20:41:58.218Z,19.90
2017-06-30T20:44:26.494Z,19.80
2017-06-30T20:49:25.762Z,19.50
2017-06-30T20:51:54.061Z,19.40
2017-06-30T20:54:23.859Z,19.20
2017-06-30T20:56:52.618Z,19.10
2017-06-30T20:59:20.905Z,19.00
2017-06-30T21:01:49.954Z,18.90
2017-06-30T21:04:18.655Z,18.80
2017-06-30T21:06:47.334Z,18.70
2017-06-30T21:09:16.762Z,18.60
2017-06-30T21:11:45.387Z,18.60
2017-06-30T21:14:15.183Z,18.50
2017-06-30T21:16:43.474Z,18.50
2017-06-30T21:19:11.851Z,18.50
2017-06-30T21:21:40.138Z,18.50
2017-06-30T21:24:10.572Z,18.60
2017-06-30T21:26:39.586Z,18.60
2017-06-30T21:29:08.687Z,18.50
2017-06-30T21:31:37.363Z,18.50
2017-06-30T21:34:05.707Z,18.60
2017-06-30T21:36:33.990Z,18.60
2017-06-30T21:39:03.787Z,18.60
2017-06-30T21:41:32.695Z,18.60
2017-06-30T21:44:01.755Z,18.60
2017-06-30T21:46:30.495Z,18.70
2017-06-30T21:48:58.986Z,18.60
2017-06-30T21:51:27.270Z,18.60
2017-06-30T21:53:57.067Z,18.70
2017-06-30T21:58:55.516Z,18.70
2017-06-30T22:01:23.804Z,18.70
2017-06-30T22:06:22.166Z,18.70
2017-06-30T22:08:51.214Z,18.70
2017-06-30T22:11:19.571Z,18.70
2017-06-30T22:13:47.896Z,18.70
2017-06-30T22:16:16.207Z,18.70
2017-06-30T22:18:45.699Z,18.70
2017-06-30T22:21:13.990Z,18.80
2017-06-30T22:23:43.797Z,18.70
2017-06-30T22:26:12.143Z,18.70
2017-06-30T22:28:40.471Z,18.70
2017-06-30T22:31:08.766Z,18.70
2017-06-30T22:33:39.016Z,18.70
2017-06-30T22:36:07.316Z,18.80
2017-06-30T22:38:35.598Z,18.80
2017-06-30T22:41:05.437Z,18.80
2017-06-30T22:43:33.714Z,18.80
2017-06-30T22:46:02.771Z,18.80
2017-06-30T22:48:31.374Z,18.80
2017-06-30T22:51:00.082Z,18.80
2017-06-30T22:53:29.510Z,18.80
2017-06-30T22:55:57.858Z,18.80
2017-06-30T22:58:27.278Z,18.80
2017-06-30T23:00:55.570Z,18.80
2017-06-30T23:03:24.202Z,18.80
2017-06-30T23:05:53.627Z,18.80
2017-06-30T23:08:21.913Z,18.80
2017-06-30T23:10:50.287Z,18.70
2017-06-30T23:13:19.351Z,18.70
2017-06-30T23:15:48.410Z,18.70
2017-06-30T23:20:46.258Z,18.70
2017-06-30T23:23:15.335Z,18.70
2017-06-30T23:25:43.962Z,18.70
2017-06-30T23:28:12.663Z,18.70
2017-06-30T23:30:40.953Z,18.70
2017-06-30T23:33:09.314Z,18.70
2017-06-30T23:35:39.108Z,18.70
2017-06-30T23:43:07.267Z,18.70
2017-06-30T23:45:35.550Z,18.70
2017-06-30T23:48:04.208Z,18.70
2017-06-30T23:50:32.488Z,18.70
2017-06-30T23:53:00.770Z,18.70
2017-06-30T23:55:29.110Z,18.70
2017-06-30T23:57:58.522Z,18.70
